createdAt,value
2023-10-10T00:01:16.703Z,90644.97
2023-10-10T00:03:42.981Z,90640.03
2023-10-10T00:06:09.272Z,90639.56
2023-10-10T00:08:35.590Z,90641.91
2023-10-10T00:11:01.898Z,90636.50
2023-10-10T00:13:28.178Z,90631.59
2023-10-10T00:15:54.470Z,90637.00
2023-10-10T00:18:20.756Z,90633.91
2023-10-10T00:20:47.043Z,90633.63
2023-10-10T00:23:13.370Z,90637.47
2023-10-10T00:25:39.653Z,90635.97
2023-10-10T00:28:05.922Z,90633.84
2023-10-10T00:30:32.208Z,90633.66
2023-10-10T00:32:58.496Z,90644.38
2023-10-10T00:35:24.817Z,90644.03
2023-10-10T00:37:51.118Z,90646.50
2023-10-10T00:40:17.386Z,90647.00
2023-10-10T00:42:43.661Z,90646.53
2023-10-10T00:45:09.951Z,90650.72
2023-10-10T00:47:36.388Z,90641.72
2023-10-10T00:50:02.795Z,90641.31
2023-10-10T00:52:29.068Z,90636.19
2023-10-10T00:54:55.345Z,90635.53
2023-10-10T00:57:21.622Z,90630.38
2023-10-10T00:59:47.889Z,90649.59
2023-10-10T01:02:14.256Z,90641.91
2023-10-10T01:04:40.661Z,90647.75
2023-10-10T01:07:06.982Z,90644.13
2023-10-10T01:09:33.282Z,90646.88
2023-10-10T01:11:59.600Z,90653.06
2023-10-10T01:14:25.942Z,90647.25
2023-10-10T01:16:52.349Z,90643.88
2023-10-10T01:19:18.712Z,90637.88
2023-10-10T01:21:45.036Z,90632.72
2023-10-10T01:24:11.333Z,90626.78
2023-10-10T01:26:37.604Z,90622.41
2023-10-10T01:29:03.979Z,90618.13
2023-10-10T01:31:30.285Z,90616.09
2023-10-10T01:33:56.594Z,90617.69
2023-10-10T01:36:22.898Z,90616.63
2023-10-10T01:38:49.175Z,90617.03
2023-10-10T01:41:15.504Z,90619.06
2023-10-10T01:43:41.852Z,90612.88
2023-10-10T01:46:08.211Z,90615.13
2023-10-10T01:48:34.529Z,90606.66
2023-10-10T01:51:00.816Z,90602.09
2023-10-10T01:53:27.124Z,90596.94
2023-10-10T01:55:53.428Z,90590.16
2023-10-10T01:58:19.709Z,90580.41
2023-10-10T02:00:46.008Z,90579.59
2023-10-10T02:03:12.459Z,90576.66
2023-10-10T02:05:38.933Z,90578.00
2023-10-10T02:08:05.276Z,90574.00
2023-10-10T02:10:31.558Z,90582.06
2023-10-10T02:12:57.824Z,90585.72
2023-10-10T02:15:24.155Z,90588.94
2023-10-10T02:17:50.464Z,90588.16
2023-10-10T02:20:16.806Z,90582.06
2023-10-10T02:22:43.077Z,90590.00
2023-10-10T02:25:09.347Z,90583.06
2023-10-10T02:27:35.634Z,90586.69
2023-10-10T02:30:01.926Z,90594.28
2023-10-10T02:32:28.247Z,90591.22
2023-10-10T02:34:54.628Z,90590.00
2023-10-10T02:37:20.909Z,90588.53
2023-10-10T02:39:47.220Z,90591.69
2023-10-10T02:42:13.577Z,90584.06
2023-10-10T02:44:39.869Z,90588.38
2023-10-10T02:47:06.359Z,90580.56
2023-10-10T02:49:32.686Z,90574.38
2023-10-10T02:51:58.961Z,90569.28
2023-10-10T02:54:25.235Z,90578.19
2023-10-10T02:56:51.541Z,90574.63
2023-10-10T02:59:17.928Z,90579.53
2023-10-10T03:01:44.251Z,90578.44
2023-10-10T03:04:10.730Z,90576.88
2023-10-10T03:06:37.095Z,90571.38
2023-10-10T03:09:03.382Z,90582.22
2023-10-10T03:11:29.734Z,90579.28
2023-10-10T03:13:56.049Z,90580.66
2023-10-10T03:16:22.355Z,90594.53
2023-10-10T03:18:48.647Z,90589.25
2023-10-10T03:21:14.924Z,90582.13
2023-10-10T03:23:41.207Z,90586.22
2023-10-10T03:26:07.518Z,90587.03
2023-10-10T03:28:33.837Z,90584.38
2023-10-10T03:31:00.134Z,90584.63
2023-10-10T03:33:26.450Z,90579.59
2023-10-10T03:35:52.727Z,90578.59
2023-10-10T03:38:19.003Z,90584.22
2023-10-10T03:40:45.321Z,90585.22
2023-10-10T03:43:11.632Z,90573.31
2023-10-10T03:45:37.909Z,90564.06
2023-10-10T03:48:04.197Z,90577.13
2023-10-10T03:50:30.488Z,90570.13
2023-10-10T03:52:56.778Z,90573.91
2023-10-10T03:55:23.064Z,90569.19
2023-10-10T03:57:49.386Z,90574.00
2023-10-10T04:00:15.774Z,90570.25
2023-10-10T04:02:42.245Z,90571.22
2023-10-10T04:05:23.720Z,90573.47
2023-10-10T04:07:52.541Z,90581.56
2023-10-10T04:10:18.818Z,90580.50
2023-10-10T04:12:45.099Z,90582.09
2023-10-10T04:15:11.403Z,90576.41
2023-10-10T04:17:37.784Z,90582.78
2023-10-10T04:20:04.127Z,90579.63
2023-10-10T04:22:30.423Z,90576.94
2023-10-10T04:24:58.204Z,90574.47
2023-10-10T04:27:25.675Z,90577.25
2023-10-10T04:29:51.951Z,90569.41
2023-10-10T04:32:18.279Z,90569.97
2023-10-10T04:34:44.575Z,90566.78
2023-10-10T04:37:10.872Z,90559.66
2023-10-10T04:39:37.152Z,90565.09
2023-10-10T04:42:03.440Z,90563.25
2023-10-10T04:44:29.748Z,90570.66
2023-10-10T04:46:56.057Z,90564.56
2023-10-10T04:49:22.344Z,90577.19
2023-10-10T04:51:48.649Z,90566.69
2023-10-10T04:54:15.262Z,90572.47
2023-10-10T04:56:41.788Z,90568.91
2023-10-10T04:59:08.171Z,90569.34
2023-10-10T05:01:34.644Z,90577.19
2023-10-10T05:04:01.004Z,90572.28
2023-10-10T05:06:27.292Z,90577.09
2023-10-10T05:08:53.607Z,90569.28
2023-10-10T05:11:19.961Z,90569.66
2023-10-10T05:13:46.355Z,90573.06
2023-10-10T05:16:12.782Z,90560.75
2023-10-10T05:18:39.094Z,90560.97
2023-10-10T05:21:05.359Z,90553.53
2023-10-10T05:23:31.862Z,90557.59
2023-10-10T05:25:58.223Z,90555.69
2023-10-10T05:28:24.500Z,90555.81
2023-10-10T05:30:50.876Z,90559.75
2023-10-10T05:33:17.202Z,90556.41
2023-10-10T05:35:43.541Z,90555.47
2023-10-10T05:38:10.033Z,90559.75
2023-10-10T05:40:36.453Z,90559.84
2023-10-10T05:43:02.741Z,90558.56
2023-10-10T05:45:29.079Z,90563.97
2023-10-10T05:47:55.514Z,90548.78
2023-10-10T05:50:21.978Z,90558.28
2023-10-10T05:52:48.265Z,90556.81
2023-10-10T05:55:17.987Z,90557.06
2023-10-10T05:57:44.250Z,90560.25
2023-10-10T06:00:10.614Z,90566.25
2023-10-10T06:02:36.968Z,90560.88
2023-10-10T06:05:03.336Z,90562.72
2023-10-10T06:07:29.652Z,90566.09
2023-10-10T06:09:55.924Z,90566.41
2023-10-10T06:12:22.207Z,90571.75
2023-10-10T06:14:48.503Z,90565.81
2023-10-10T06:17:14.957Z,90571.50
2023-10-10T06:19:41.344Z,90565.06
2023-10-10T06:22:07.638Z,90568.19
2023-10-10T06:24:33.926Z,90562.44
2023-10-10T06:27:00.214Z,90570.03
2023-10-10T06:29:26.509Z,90571.28
2023-10-10T06:32:11.317Z,90573.75
2023-10-10T06:34:56.417Z,90570.63
2023-10-10T06:37:41.561Z,90571.84
2023-10-10T06:40:26.641Z,90571.84
2023-10-10T06:43:11.724Z,90576.00
2023-10-10T06:45:56.861Z,90579.56
2023-10-10T06:48:41.813Z,90584.78
2023-10-10T06:51:26.735Z,90588.34
2023-10-10T06:54:11.805Z,90584.03
2023-10-10T06:56:56.869Z,90588.22
2023-10-10T06:59:41.955Z,90591.28
2023-10-10T07:02:26.949Z,90585.81
2023-10-10T07:05:12.016Z,90585.66
2023-10-10T07:07:57.107Z,90590.97
2023-10-10T07:10:41.889Z,90585.75
2023-10-10T07:13:26.825Z,90585.00
2023-10-10T07:16:11.967Z,90580.28
2023-10-10T07:18:56.943Z,90579.41
2023-10-10T07:21:41.959Z,90577.28
2023-10-10T07:24:27.131Z,90578.78
2023-10-10T07:27:12.066Z,90574.69
2023-10-10T07:29:57.063Z,90587.75
2023-10-10T07:32:42.181Z,90579.56
2023-10-10T07:35:27.309Z,90580.47
2023-10-10T07:38:12.087Z,90583.00
2023-10-10T07:40:57.152Z,90580.66
2023-10-10T07:43:42.318Z,90579.94
2023-10-10T07:46:27.474Z,90588.44
2023-10-10T07:49:12.495Z,90580.75
2023-10-10T07:51:57.730Z,90577.31
2023-10-10T07:54:42.770Z,90574.22
2023-10-10T07:57:27.775Z,90577.94
2023-10-10T08:00:12.786Z,90579.53
2023-10-10T08:02:57.872Z,90580.16
2023-10-10T08:05:42.827Z,90573.56
2023-10-10T08:08:27.898Z,90577.06
2023-10-10T08:11:13.028Z,90573.59
2023-10-10T08:13:58.053Z,90572.59
2023-10-10T08:16:43.287Z,90564.81
2023-10-10T08:19:28.314Z,90574.47
2023-10-10T08:22:13.388Z,90573.72
2023-10-10T08:24:58.308Z,90573.59
2023-10-10T08:27:44.149Z,90562.50
2023-10-10T08:30:29.469Z,90571.50
2023-10-10T08:33:14.752Z,90572.00
2023-10-10T08:35:59.668Z,90573.59
2023-10-10T08:38:44.707Z,90571.69
2023-10-10T08:41:29.799Z,90576.94
2023-10-10T08:44:14.960Z,90565.69
2023-10-10T08:47:00.328Z,90564.06
2023-10-10T08:49:45.420Z,90553.97
2023-10-10T08:52:30.506Z,90561.09
2023-10-10T08:55:15.562Z,90559.50
2023-10-10T08:58:00.757Z,90561.03
2023-10-10T09:00:49.331Z,90561.84
2023-10-10T09:03:34.822Z,90558.03
2023-10-10T09:06:19.904Z,90555.78
2023-10-10T09:09:04.897Z,90561.72
2023-10-10T09:11:50.053Z,90546.88
2023-10-10T09:14:35.007Z,90550.19
2023-10-10T09:17:19.956Z,90541.72
2023-10-10T09:20:05.006Z,90549.94
2023-10-10T09:22:50.116Z,90542.47
2023-10-10T09:25:35.191Z,90540.25
2023-10-10T09:28:20.183Z,90537.00
2023-10-10T09:31:05.379Z,90534.75
2023-10-10T09:33:50.201Z,90526.78
2023-10-10T09:36:35.146Z,90536.25
2023-10-10T09:39:20.424Z,90527.66
2023-10-10T09:42:05.432Z,90528.97
2023-10-10T09:44:50.560Z,90524.25
2023-10-10T09:47:35.522Z,90530.31
2023-10-10T09:50:20.650Z,90529.56
2023-10-10T09:53:05.632Z,90525.00
2023-10-10T09:55:50.683Z,90522.03
2023-10-10T09:58:35.547Z,90523.22
2023-10-10T10:01:20.597Z,90517.44
2023-10-10T10:04:05.687Z,90520.97
2023-10-10T10:07:06.147Z,90520.84
2023-10-10T10:09:52.273Z,90521.13
2023-10-10T10:12:37.211Z,90512.53
2023-10-10T10:15:22.149Z,90504.50
2023-10-10T10:18:07.179Z,90502.47
2023-10-10T10:20:52.294Z,90511.66
2023-10-10T10:23:37.381Z,90516.41
2023-10-10T10:26:22.397Z,90510.19
2023-10-10T10:29:07.352Z,90508.66
2023-10-10T10:31:52.383Z,90502.44
2023-10-10T10:34:37.308Z,90506.44
2023-10-10T10:37:22.373Z,90505.16
2023-10-10T10:40:07.422Z,90498.00
2023-10-10T10:42:52.499Z,90496.03
2023-10-10T10:45:37.463Z,90488.53
2023-10-10T10:48:22.582Z,90485.09
2023-10-10T10:51:07.571Z,90481.91
2023-10-10T10:53:52.624Z,90478.94
2023-10-10T10:56:37.750Z,90470.19
2023-10-10T10:59:22.882Z,90470.84
2023-10-10T11:02:07.720Z,90465.19
2023-10-10T11:04:52.620Z,90460.09
2023-10-10T11:07:37.657Z,90457.81
2023-10-10T11:10:22.623Z,90454.53
2023-10-10T11:13:07.677Z,90451.88
2023-10-10T11:15:52.573Z,90446.69
2023-10-10T11:18:37.726Z,90448.25
2023-10-10T11:21:22.661Z,90438.78
2023-10-10T11:24:07.828Z,90429.63
2023-10-10T11:26:52.982Z,90429.97
2023-10-10T11:29:38.050Z,90425.50
2023-10-10T11:32:23.149Z,90423.88
2023-10-10T11:35:08.023Z,90419.59
2023-10-10T11:37:53.045Z,90413.47
2023-10-10T11:40:38.101Z,90413.19
2023-10-10T11:43:23.057Z,90406.41
2023-10-10T11:46:08.040Z,90401.31
2023-10-10T11:48:53.072Z,90401.31
2023-10-10T11:51:38.222Z,90390.22
2023-10-10T11:54:23.195Z,90397.22
2023-10-10T11:57:08.279Z,90380.94
2023-10-10T11:59:53.186Z,90386.59
2023-10-10T12:02:38.281Z,90378.75
2023-10-10T12:05:23.263Z,90374.28
2023-10-10T12:08:08.241Z,90370.38
2023-10-10T12:10:53.450Z,90376.63
2023-10-10T12:13:38.308Z,90369.00
2023-10-10T12:16:23.382Z,90369.47
2023-10-10T12:19:08.453Z,90368.78
2023-10-10T12:21:53.526Z,90370.22
2023-10-10T12:24:38.482Z,90367.25
2023-10-10T12:27:23.669Z,90366.25
2023-10-10T12:30:08.664Z,90363.31
2023-10-10T12:32:53.735Z,90356.31
2023-10-10T12:35:38.685Z,90353.19
2023-10-10T12:38:23.646Z,90350.97
2023-10-10T12:41:08.732Z,90350.34
2023-10-10T12:43:53.705Z,90350.16
2023-10-10T12:46:38.791Z,90347.94
2023-10-10T12:49:23.893Z,90347.91
2023-10-10T12:52:09.035Z,90334.56
2023-10-10T12:54:54.120Z,90341.84
2023-10-10T12:57:39.001Z,90336.59
2023-10-10T13:00:24.015Z,90341.94
2023-10-10T13:03:09.071Z,90340.38
2023-10-10T13:05:54.138Z,90340.72
2023-10-10T13:08:39.171Z,90339.16
2023-10-10T13:11:24.228Z,90335.28
2023-10-10T13:14:09.201Z,90332.00
2023-10-10T13:16:54.227Z,90324.97
2023-10-10T13:19:39.366Z,90321.00
2023-10-10T13:22:24.241Z,90324.41
2023-10-10T13:25:09.362Z,90324.41
2023-10-10T13:27:54.432Z,90319.63
2023-10-10T13:30:39.402Z,90322.38
2023-10-10T13:33:24.568Z,90329.97
2023-10-10T13:36:09.490Z,90324.72
2023-10-10T13:38:54.565Z,90329.84
2023-10-10T13:41:39.574Z,90322.66
2023-10-10T13:44:24.655Z,90323.59
2023-10-10T13:47:09.655Z,90315.84
2023-10-10T13:49:54.681Z,90316.13
2023-10-10T13:52:39.689Z,90322.78
2023-10-10T13:55:24.616Z,90321.66
2023-10-10T13:58:09.688Z,90316.31
2023-10-10T14:00:54.714Z,90322.94
2023-10-10T14:03:39.893Z,90322.03
2023-10-10T14:06:24.766Z,90312.41
2023-10-10T14:09:09.799Z,90305.34
2023-10-10T14:11:56.777Z,90314.00
2023-10-10T14:14:42.840Z,90306.88
2023-10-10T14:17:28.182Z,90307.31
2023-10-10T14:20:12.833Z,90304.84
2023-10-10T14:22:57.934Z,90303.75
2023-10-10T14:25:42.958Z,90301.25
2023-10-10T14:28:27.993Z,90304.13
2023-10-10T14:31:13.124Z,90301.44
2023-10-10T14:33:58.293Z,90306.91
2023-10-10T14:36:43.301Z,90309.81
2023-10-10T14:39:28.307Z,90314.16
2023-10-10T14:42:13.193Z,90305.00
2023-10-10T14:44:58.228Z,90310.16
2023-10-10T14:47:43.298Z,90304.00
2023-10-10T14:50:28.312Z,90306.72
2023-10-10T14:53:13.255Z,90306.25
2023-10-10T14:55:58.275Z,90304.03
2023-10-10T14:58:43.286Z,90304.63
2023-10-10T15:01:28.368Z,90300.91
2023-10-10T15:04:13.333Z,90299.59
2023-10-10T15:06:58.405Z,90299.72
2023-10-10T15:09:43.431Z,90296.75
2023-10-10T15:12:28.602Z,90298.97
2023-10-10T15:15:13.627Z,90302.25
2023-10-10T15:17:58.678Z,90297.59
2023-10-10T15:20:43.970Z,90292.72
2023-10-10T15:23:28.917Z,90301.09
2023-10-10T15:26:14.151Z,90304.09
2023-10-10T15:28:59.106Z,90298.53
2023-10-10T15:31:44.212Z,90306.44
2023-10-10T15:34:29.330Z,90301.66
2023-10-10T15:37:14.298Z,90309.19
2023-10-10T15:39:59.409Z,90311.19
2023-10-10T15:42:44.452Z,90308.25
2023-10-10T15:45:29.429Z,90308.06
2023-10-10T15:48:14.455Z,90308.59
2023-10-10T15:50:59.502Z,90310.69
2023-10-10T15:53:44.366Z,90308.88
2023-10-10T15:56:29.296Z,90310.78
2023-10-10T15:59:14.282Z,90314.47
2023-10-10T16:01:59.242Z,90316.59
2023-10-10T16:04:44.340Z,90318.31
2023-10-10T16:07:29.175Z,90321.13
2023-10-10T16:10:15.367Z,90314.06
2023-10-10T16:13:00.036Z,90316.88
2023-10-10T16:15:45.160Z,90318.66
2023-10-10T16:18:30.025Z,90326.94
2023-10-10T16:21:14.924Z,90327.06
2023-10-10T16:24:00.073Z,90327.97
2023-10-10T16:26:45.040Z,90324.00
2023-10-10T16:29:30.139Z,90325.38
2023-10-10T16:32:15.180Z,90329.94
2023-10-10T16:35:00.328Z,90331.28
2023-10-10T16:37:45.283Z,90336.00
2023-10-10T16:40:30.426Z,90340.13
2023-10-10T16:43:15.462Z,90339.88
2023-10-10T16:46:00.517Z,90340.03
2023-10-10T16:48:45.569Z,90345.91
2023-10-10T16:51:30.654Z,90343.97
2023-10-10T16:54:15.800Z,90339.78
2023-10-10T16:57:00.736Z,90344.34
2023-10-10T16:59:45.729Z,90340.91
2023-10-10T17:02:31.034Z,90339.44
2023-10-10T17:05:16.218Z,90352.63
2023-10-10T17:08:01.382Z,90349.41
2023-10-10T17:10:46.412Z,90350.53
2023-10-10T17:13:31.312Z,90352.09
2023-10-10T17:16:16.759Z,90366.22
2023-10-10T17:21:49.867Z,90364.06
2023-10-10T17:24:34.940Z,90373.78
2023-10-10T17:27:20.131Z,90374.78
2023-10-10T17:30:05.132Z,90382.41
2023-10-10T17:32:50.246Z,90377.13
2023-10-10T17:35:35.160Z,90386.19
2023-10-10T17:38:20.186Z,90384.72
2023-10-10T17:41:05.592Z,90385.34
2023-10-10T17:43:50.514Z,90384.06
2023-10-10T17:46:35.667Z,90391.16
2023-10-10T17:49:20.593Z,90389.25
2023-10-10T17:52:05.538Z,90391.78
2023-10-10T17:54:50.493Z,90395.97
2023-10-10T17:57:35.571Z,90399.09
2023-10-10T18:00:20.574Z,90400.69
2023-10-10T18:03:05.615Z,90399.69
2023-10-10T18:05:50.717Z,90401.78
2023-10-10T18:08:35.649Z,90407.94
2023-10-10T18:11:20.686Z,90415.78
2023-10-10T18:14:05.613Z,90413.75
2023-10-10T18:16:50.766Z,90417.19
2023-10-10T18:19:35.692Z,90421.53
2023-10-10T18:22:20.731Z,90426.84
2023-10-10T18:25:05.794Z,90424.59
2023-10-10T18:27:50.482Z,90420.13
2023-10-10T18:30:35.616Z,90435.06
2023-10-10T18:33:20.660Z,90431.81
2023-10-10T18:36:05.600Z,90430.22
2023-10-10T18:38:50.656Z,90430.31
2023-10-10T18:41:35.648Z,90432.66
2023-10-10T18:44:20.716Z,90436.34
2023-10-10T18:47:05.790Z,90434.22
2023-10-10T18:49:50.797Z,90434.56
2023-10-10T18:52:35.766Z,90440.69
2023-10-10T18:55:20.917Z,90438.28
2023-10-10T18:58:05.967Z,90437.72
2023-10-10T19:00:51.017Z,90444.03
2023-10-10T19:03:36.206Z,90445.66
2023-10-10T19:06:21.237Z,90450.69
2023-10-10T19:09:06.222Z,90452.38
2023-10-10T19:11:51.187Z,90446.53
2023-10-10T19:14:36.459Z,90446.63
2023-10-10T19:17:21.464Z,90453.66
2023-10-10T19:20:06.564Z,90457.25
2023-10-10T19:22:51.471Z,90454.91
2023-10-10T19:25:36.482Z,90458.19
2023-10-10T19:28:21.525Z,90454.78
2023-10-10T19:31:06.504Z,90460.00
2023-10-10T19:33:51.784Z,90461.81
2023-10-10T19:36:36.613Z,90458.53
2023-10-10T19:39:21.754Z,90463.84
2023-10-10T19:42:06.654Z,90461.50
2023-10-10T19:44:51.862Z,90464.78
2023-10-10T19:47:38.145Z,90466.25
2023-10-10T19:50:25.451Z,90463.28
2023-10-10T19:53:10.401Z,90462.34
2023-10-10T19:55:55.341Z,90469.34
2023-10-10T19:58:40.348Z,90475.59
2023-10-10T20:01:25.472Z,90469.03
2023-10-10T20:04:10.674Z,90479.94
2023-10-10T20:06:55.487Z,90481.03
2023-10-10T20:09:40.380Z,90471.78
2023-10-10T20:12:25.417Z,90479.41
2023-10-10T20:15:10.423Z,90481.53
2023-10-10T20:17:55.475Z,90483.59
2023-10-10T20:20:40.285Z,90480.91
2023-10-10T20:23:25.232Z,90478.34
2023-10-10T20:26:10.162Z,90478.91
2023-10-10T20:28:55.171Z,90477.00
2023-10-10T20:31:40.337Z,90479.94
2023-10-10T20:34:25.344Z,90480.16
2023-10-10T20:37:10.355Z,90486.44
2023-10-10T20:39:55.388Z,90486.72
2023-10-10T20:42:40.531Z,90482.03
2023-10-10T20:45:25.437Z,90482.16
2023-10-10T20:48:10.876Z,90483.97
2023-10-10T20:50:56.323Z,90492.03
2023-10-10T20:53:41.322Z,90485.16
2023-10-10T20:56:26.358Z,90483.78
2023-10-10T20:59:11.334Z,90477.78
2023-10-10T21:01:56.448Z,90481.91
2023-10-10T21:04:41.493Z,90491.06
2023-10-10T21:07:26.566Z,90489.72
2023-10-10T21:10:11.690Z,90483.22
2023-10-10T21:12:56.476Z,90491.06
2023-10-10T21:15:41.643Z,90490.41
2023-10-10T21:18:26.714Z,90495.94
2023-10-10T21:21:11.783Z,90493.59
2023-10-10T21:23:56.744Z,90499.00
2023-10-10T21:26:41.652Z,90490.56
2023-10-10T21:29:26.644Z,90497.56
2023-10-10T21:32:11.750Z,90497.78
2023-10-10T21:34:56.712Z,90493.66
2023-10-10T21:37:41.674Z,90502.81
2023-10-10T21:40:26.729Z,90500.47
2023-10-10T21:43:11.704Z,90501.91
2023-10-10T21:45:56.719Z,90505.16
2023-10-10T21:48:41.665Z,90503.06
2023-10-10T21:51:26.710Z,90504.75
2023-10-10T21:54:11.625Z,90501.69
2023-10-10T21:56:56.679Z,90497.06
2023-10-10T21:59:41.794Z,90499.38
2023-10-10T22:02:26.781Z,90494.00
2023-10-10T22:05:11.721Z,90499.56
2023-10-10T22:07:56.721Z,90497.91
2023-10-10T22:10:41.617Z,90500.28
2023-10-10T22:13:26.690Z,90495.31
2023-10-10T22:16:11.952Z,90493.03
2023-10-10T22:18:57.030Z,90489.81
2023-10-10T22:21:41.923Z,90483.28
2023-10-10T22:24:26.895Z,90488.66
2023-10-10T22:27:11.820Z,90480.53
2023-10-10T22:29:56.708Z,90483.56
2023-10-10T22:32:41.720Z,90485.56
2023-10-10T22:35:26.783Z,90492.13
2023-10-10T22:38:11.712Z,90482.00
2023-10-10T22:40:56.787Z,90492.22
2023-10-10T22:43:42.053Z,90491.16
2023-10-10T22:46:26.994Z,90489.00
2023-10-10T22:49:11.996Z,90487.84
2023-10-10T22:51:57.005Z,90483.41
2023-10-10T22:54:42.033Z,90483.00
2023-10-10T22:57:26.998Z,90481.44
2023-10-10T23:00:12.047Z,90479.44
2023-10-10T23:02:57.167Z,90485.09
2023-10-10T23:05:42.087Z,90479.50
2023-10-10T23:08:27.047Z,90478.78
2023-10-10T23:11:12.067Z,90476.22
2023-10-10T23:13:57.264Z,90475.88
2023-10-10T23:16:42.218Z,90481.88
2023-10-10T23:19:27.169Z,90477.16
2023-10-10T23:22:12.158Z,90480.97
2023-10-10T23:24:57.328Z,90478.59
2023-10-10T23:27:42.314Z,90476.31
2023-10-10T23:30:27.280Z,90473.38
2023-10-10T23:33:14.006Z,90471.03
2023-10-10T23:35:58.880Z,90474.97
2023-10-10T23:38:43.996Z,90472.53
2023-10-10T23:41:29.012Z,90467.50
2023-10-10T23:44:14.088Z,90473.66
2023-10-10T23:46:59.271Z,90476.91
2023-10-10T23:49:44.314Z,90478.59
2023-10-10T23:52:29.455Z,90478.13
2023-10-10T23:55:14.378Z,90481.22
2023-10-10T23:57:59.392Z,90491.06
